Terminal Aerodrome Forecast
Issued by NWS

Current Version | Previous Version | Graphics & Text | Print | Product List | Glossary On
Versions: 1 2 3 4 5 6 7 8 9 10 11 12 13 14 15 16 17 18 19 20 21 22 23 24
000
FTUS41 KRNK 021729
TAFLWB
TAF
KLWB 021729Z 0218/0318 VRB03KT P6SM SCT045 BKN250
     FM030000 00000KT P6SM SCT250
     FM030800 00000KT 1/4SM FG OVC001
     FM031400 25006KT P6SM SCT035=

USA.gov is the U.S. government's official web portal to all federal, state and local government web resources and services.